Time,TemperatureF,DewpointF,PressureIn,WindDirection,WindDirectionDegrees,WindSpeedMPH,WindSpeedGustMPH,Humidity,HourlyPrecipIn,Conditions,Clouds,dailyrainin,SoftwareType,DateUTC
2013-02-16 00:00:00,35.1,33.8,29.88,WSW,245,0.0,1.0,95,0.00,,,0.00,VWS V14.01,2013-02-16 05:00:00,
2013-02-16 00:05:00,35.0,34.0,29.88,WSW,245,0.0,0.0,96,0.00,,,0.00,VWS V14.01,2013-02-16 05:05:00,
2013-02-16 00:10:00,35.1,34.1,29.88,WSW,245,0.0,0.0,96,0.00,,,0.00,VWS V14.01,2013-02-16 05:10:00,
2013-02-16 00:15:00,35.1,34.1,29.88,WSW,245,0.0,0.0,96,0.00,,,0.00,VWS V14.01,2013-02-16 05:15:00,
2013-02-16 00:20:00,35.1,34.1,29.88,WSW,245,0.0,0.0,96,0.00,,,0.00,VWS V14.01,2013-02-16 05:20:00,
2013-02-16 00:23:00,35.1,34.1,29.88,WSW,245,0.0,0.0,96,0.00,,,0.00,VWS V14.01,2013-02-16 05:23:00,
2013-02-16 00:28:00,34.9,33.9,29.88,WSW,245,0.0,0.0,96,0.00,,,0.00,VWS V14.01,2013-02-16 05:28:00,
2013-02-16 00:30:00,31.3,30.0,29.88,WSW,245,0.0,3.0,95,0.00,,,0.00,VWS V14.01,2013-02-16 05:30:00,
2013-02-16 00:33:00,34.8,33.8,29.88,WSW,245,0.0,0.0,96,0.00,,,0.00,VWS V14.01,2013-02-16 05:33:00,
2013-02-16 00:38:00,34.7,33.7,29.88,WSW,245,0.0,0.0,96,0.00,,,0.00,VWS V14.01,2013-02-16 05:38:00,
2013-02-16 00:43:00,34.7,33.7,29.88,WSW,245,0.0,0.0,96,0.00,,,0.00,VWS V14.01,2013-02-16 05:43:00,
2013-02-16 00:48:00,34.6,33.6,29.88,WSW,245,0.0,0.0,96,0.00,,,0.00,VWS V14.01,2013-02-16 05:48:00,
2013-02-16 00:53:00,34.4,33.4,29.88,WSW,245,0.0,0.0,96,0.00,,,0.00,VWS V14.01,2013-02-16 05:53:00,
2013-02-16 00:58:00,34.1,32.8,29.88,WSW,245,1.0,2.0,95,0.00,,,0.00,VWS V14.01,2013-02-16 05:58:00,
2013-02-16 01:00:00,31.7,30.7,29.87,WSW,245,0.0,2.0,96,0.00,,,0.00,VWS V14.01,2013-02-16 06:00:00,
2013-02-16 01:03:00,33.1,31.8,29.88,WSW,245,2.0,2.0,95,0.00,,,0.00,VWS V14.01,2013-02-16 06:03:00,
2013-02-16 01:08:00,32.5,31.2,29.88,WSW,245,2.0,2.0,95,0.00,,,0.00,VWS V14.01,2013-02-16 06:08:00,
2013-02-16 01:13:00,32.3,31.0,29.88,WSW,245,0.0,2.0,95,0.00,,,0.00,VWS V14.01,2013-02-16 06:13:00,
2013-02-16 01:18:00,32.2,31.2,29.88,WSW,245,1.0,2.0,96,0.00,,,0.00,VWS V14.01,2013-02-16 06:18:00,
2013-02-16 01:23:00,31.9,30.9,29.88,WSW,245,2.0,3.0,96,0.00,,,0.00,VWS V14.01,2013-02-16 06:23:00,
2013-02-16 01:28:00,31.5,30.2,29.88,WSW,245,2.0,3.0,95,0.00,,,0.00,VWS V14.01,2013-02-16 06:28:00,
2013-02-16 01:33:00,31.2,29.9,29.88,WSW,245,1.0,1.0,95,0.00,,,0.00,VWS V14.01,2013-02-16 06:33:00,
2013-02-16 01:38:00,31.3,30.3,29.88,WSW,245,2.0,2.0,96,0.00,,,0.00,VWS V14.01,2013-02-16 06:38:00,
2013-02-16 01:43:00,31.7,30.7,29.88,WSW,245,0.0,2.0,96,0.00,,,0.00,VWS V14.01,2013-02-16 06:43:00,
2013-02-16 01:48:00,32.1,31.4,29.88,WSW,245,0.0,2.0,97,0.00,,,0.00,VWS V14.01,2013-02-16 06:48:00,
2013-02-16 01:53:00,31.9,30.9,29.88,WSW,245,0.0,2.0,96,0.00,,,0.00,VWS V14.01,2013-02-16 06:53:00,
2013-02-16 01:58:00,31.8,30.8,29.87,WSW,245,0.0,2.0,96,0.00,,,0.00,VWS V14.01,2013-02-16 06:58:00,
2013-02-16 02:03:00,31.7,30.7,29.87,WSW,245,0.0,0.0,96,0.00,,,0.00,VWS V14.01,2013-02-16 07:03:00,
2013-02-16 02:08:00,31.6,30.6,29.87,WSW,245,0.0,0.0,96,0.00,,,0.00,VWS V14.01,2013-02-16 07:08:00,
2013-02-16 02:13:00,31.6,30.6,29.87,WSW,245,0.0,0.0,96,0.00,,,0.00,VWS V14.01,2013-02-16 07:13:00,
2013-02-16 02:18:00,31.6,30.6,29.87,WSW,245,0.0,0.0,96,0.00,,,0.00,VWS V14.01,2013-02-16 07:18:00,
2013-02-16 02:23:00,31.5,30.5,29.86,WSW,245,0.0,0.0,96,0.00,,,0.00,VWS V14.01,2013-02-16 07:23:00,
2013-02-16 02:28:00,31.3,30.3,29.86,WSW,245,0.0,0.0,96,0.00,,,0.00,VWS V14.01,2013-02-16 07:28:00,
2013-02-16 02:33:00,31.1,30.1,29.86,WSW,245,0.0,0.0,96,0.00,,,0.00,VWS V14.01,2013-02-16 07:33:00,
2013-02-16 02:38:00,31.0,30.0,29.85,WSW,245,0.0,0.0,96,0.00,,,0.00,VWS V14.01,2013-02-16 07:38:00,
2013-02-16 02:43:00,30.9,29.9,29.85,WSW,245,0.0,0.0,96,0.00,,,0.00,VWS V14.01,2013-02-16 07:43:00,
2013-02-16 02:48:00,31.1,30.1,29.85,WSW,245,0.0,0.0,96,0.00,,,0.00,VWS V14.01,2013-02-16 07:48:00,
2013-02-16 02:53:00,31.2,30.5,29.85,WSW,245,0.0,0.0,97,0.00,,,0.00,VWS V14.01,2013-02-16 07:53:00,
2013-02-16 02:58:00,31.2,30.5,29.85,WSW,245,0.0,0.0,97,0.00,,,0.00,VWS V14.01,2013-02-16 07:58:00,
2013-02-16 03:00:00,31.5,30.8,29.83,WSW,245,0.0,1.0,97,0.00,,,0.00,VWS V14.01,2013-02-16 08:00:00,
2013-02-16 03:03:00,31.2,30.5,29.84,WSW,245,0.0,0.0,97,0.00,,,0.00,VWS V14.01,2013-02-16 08:03:00,
2013-02-16 03:08:00,31.0,30.0,29.84,WSW,245,0.0,0.0,96,0.00,,,0.00,VWS V14.01,2013-02-16 08:08:00,
2013-02-16 03:13:00,31.0,30.0,29.84,WSW,245,0.0,0.0,96,0.00,,,0.00,VWS V14.01,2013-02-16 08:13:00,
2013-02-16 03:18:00,31.2,30.5,29.84,WSW,245,0.0,0.0,97,0.00,,,0.00,VWS V14.01,2013-02-16 08:18:00,
2013-02-16 03:23:00,31.4,30.6,29.84,WSW,245,0.0,0.0,97,0.00,,,0.00,VWS V14.01,2013-02-16 08:23:00,
2013-02-16 03:28:00,31.6,30.9,29.84,WSW,245,1.0,2.0,97,0.00,,,0.00,VWS V14.01,2013-02-16 08:28:00,
2013-02-16 03:30:00,32.1,31.4,29.82,WSW,245,0.0,1.0,97,0.00,,,0.00,VWS V14.01,2013-02-16 08:30:00,
2013-02-16 03:33:00,31.3,30.5,29.84,WSW,245,0.0,0.0,97,0.00,,,0.00,VWS V14.01,2013-02-16 08:33:00,
2013-02-16 03:38:00,31.3,30.5,29.84,WSW,245,1.0,1.0,97,0.00,,,0.00,VWS V14.01,2013-02-16 08:38:00,
2013-02-16 03:43:00,31.1,30.1,29.83,WSW,245,0.0,1.0,96,0.00,,,0.00,VWS V14.01,2013-02-16 08:43:00,
2013-02-16 03:48:00,31.0,30.2,29.83,WSW,245,0.0,1.0,97,0.00,,,0.00,VWS V14.01,2013-02-16 08:48:00,
2013-02-16 03:53:00,31.1,30.4,29.83,WSW,245,0.0,1.0,97,0.00,,,0.00,VWS V14.01,2013-02-16 08:53:00,
2013-02-16 03:58:00,31.4,30.6,29.83,WSW,245,0.0,1.0,97,0.00,,,0.00,VWS V14.01,2013-02-16 08:58:00,
2013-02-16 04:00:00,28.7,28.0,29.84,NNW,330,3.0,6.0,97,0.00,,,0.00,VWS V14.01,2013-02-16 09:00:00,
2013-02-16 04:03:00,31.5,30.8,29.83,WSW,245,0.0,0.0,97,0.00,,,0.00,VWS V14.01,2013-02-16 09:03:00,
2013-02-16 04:08:00,31.9,31.1,29.83,WSW,245,0.0,0.0,97,0.00,,,0.00,VWS V14.01,2013-02-16 09:08:00,
2013-02-16 04:13:00,32.1,31.4,29.83,WSW,245,0.0,0.0,97,0.00,,,0.00,VWS V14.01,2013-02-16 09:13:00,
2013-02-16 04:18:00,32.2,31.5,29.82,WSW,245,0.0,0.0,97,0.00,,,0.00,VWS V14.01,2013-02-16 09:18:00,
2013-02-16 04:23:00,32.0,31.2,29.82,WSW,245,0.0,0.0,97,0.00,,,0.00,VWS V14.01,2013-02-16 09:23:00,
2013-02-16 04:28:00,32.0,31.2,29.82,WSW,245,0.0,1.0,97,0.00,,,0.00,VWS V14.01,2013-02-16 09:28:00,
2013-02-16 04:30:00,30.4,29.6,29.83,NNE,24,2.0,4.0,97,0.00,,,0.00,VWS V14.01,2013-02-16 09:30:00,
2013-02-16 04:33:00,32.2,31.5,29.82,WSW,245,2.0,2.0,97,0.00,,,0.00,VWS V14.01,2013-02-16 09:33:00,
2013-02-16 04:38:00,31.2,30.5,29.83,WSW,245,2.0,3.0,97,0.00,,,0.00,VWS V14.01,2013-02-16 09:38:00,
2013-02-16 04:43:00,30.2,29.2,29.83,WSW,245,1.0,3.0,96,0.00,,,0.00,VWS V14.01,2013-02-16 09:43:00,
2013-02-16 04:48:00,29.4,28.4,29.83,WSW,245,2.0,3.0,96,0.00,,,0.00,VWS V14.01,2013-02-16 09:48:00,
2013-02-16 04:53:00,29.0,28.0,29.83,WSW,245,2.0,4.0,96,0.00,,,0.00,VWS V14.01,2013-02-16 09:53:00,
2013-02-16 04:58:00,28.7,27.7,29.84,NNW,328,3.0,6.0,96,0.00,,,0.00,VWS V14.01,2013-02-16 09:58:00,
2013-02-16 05:00:00,31.8,31.0,29.83,NNE,26,0.0,3.0,97,0.00,,,0.00,VWS V14.01,2013-02-16 10:00:00,
2013-02-16 05:03:00,28.8,28.1,29.84,NNW,330,2.0,3.0,97,0.00,,,0.00,VWS V14.01,2013-02-16 10:03:00,
2013-02-16 05:07:00,29.0,28.3,29.84,NNW,330,4.0,4.0,97,0.00,,,0.00,VWS V14.01,2013-02-16 10:07:00,
2013-02-16 05:12:00,29.3,28.6,29.84,NNW,329,2.0,4.0,97,0.00,,,0.00,VWS V14.01,2013-02-16 10:12:00,
2013-02-16 05:17:00,29.7,29.0,29.84,NNW,337,0.0,4.0,97,0.00,,,0.00,VWS V14.01,2013-02-16 10:17:00,
2013-02-16 05:22:00,29.9,29.1,29.83,NNE,24,2.0,4.0,97,0.00,,,0.00,VWS V14.01,2013-02-16 10:22:00,
2013-02-16 05:27:00,30.2,29.5,29.83,NNE,24,2.0,4.0,97,0.00,,,0.00,VWS V14.01,2013-02-16 10:27:00,
2013-02-16 05:32:00,30.4,29.6,29.83,NNE,24,1.0,2.0,97,0.00,,,0.00,VWS V14.01,2013-02-16 10:32:00,
2013-02-16 05:37:00,30.7,30.0,29.83,NNE,26,0.0,3.0,97,0.00,,,0.00,VWS V14.01,2013-02-16 10:37:00,
2013-02-16 05:42:00,31.1,30.4,29.83,NNE,26,2.0,3.0,97,0.00,,,0.00,VWS V14.01,2013-02-16 10:42:00,
2013-02-16 05:47:00,31.4,30.6,29.83,NNE,26,1.0,3.0,97,0.00,,,0.00,VWS V14.01,2013-02-16 10:47:00,
2013-02-16 05:52:00,31.5,30.8,29.83,NNE,26,0.0,3.0,97,0.00,,,0.00,VWS V14.01,2013-02-16 10:52:00,
2013-02-16 05:57:00,31.6,30.9,29.83,NNE,26,0.0,3.0,97,0.00,,,0.00,VWS V14.01,2013-02-16 10:57:00,
2013-02-16 06:02:00,31.8,31.0,29.83,NNE,26,0.0,0.0,97,0.00,,,0.00,VWS V14.01,2013-02-16 11:02:00,
2013-02-16 06:07:00,32.0,31.5,29.84,NNE,26,2.0,2.0,98,0.00,,,0.00,VWS V14.01,2013-02-16 11:07:00,
2013-02-16 06:12:00,32.1,31.6,29.84,NNE,25,0.0,2.0,98,0.00,,,0.00,VWS V14.01,2013-02-16 11:12:00,
2013-02-16 06:17:00,32.1,31.4,29.84,NNE,25,0.0,2.0,97,0.00,,,0.00,VWS V14.01,2013-02-16 11:17:00,
2013-02-16 06:22:00,32.0,31.2,29.84,NNE,25,0.0,2.0,97,0.00,,,0.00,VWS V14.01,2013-02-16 11:22:00,
2013-02-16 06:27:00,32.0,31.2,29.85,NNE,25,0.0,2.0,97,0.00,,,0.00,VWS V14.01,2013-02-16 11:27:00,
2013-02-16 06:32:00,32.1,31.4,29.85,NNE,25,1.0,1.0,97,0.00,,,0.00,VWS V14.01,2013-02-16 11:32:00,
2013-02-16 06:37:00,32.1,31.4,29.84,NNE,25,1.0,2.0,97,0.00,,,0.00,VWS V14.01,2013-02-16 11:37:00,
2013-02-16 06:42:00,32.2,31.5,29.84,NNE,25,1.0,3.0,97,0.00,,,0.00,VWS V14.01,2013-02-16 11:42:00,
2013-02-16 06:47:00,32.4,31.6,29.84,NNE,25,0.0,3.0,97,0.00,,,0.00,VWS V14.01,2013-02-16 11:47:00,
2013-02-16 06:52:00,32.5,31.7,29.84,NNE,25,1.0,3.0,97,0.00,,,0.00,VWS V14.01,2013-02-16 11:52:00,
2013-02-16 06:57:00,32.6,32.1,29.84,North,5,0.0,3.0,98,0.00,,,0.00,VWS V14.01,2013-02-16 11:57:00,
2013-02-16 07:00:00,33.0,32.2,29.84,NNE,19,1.0,5.0,97,0.00,,,0.00,VWS V14.01,2013-02-16 12:00:00,
2013-02-16 07:02:00,32.8,32.3,29.84,NNE,18,2.0,3.0,98,0.00,,,0.00,VWS V14.01,2013-02-16 12:02:00,
2013-02-16 07:07:00,32.9,32.1,29.84,NNW,346,2.0,5.0,97,0.00,,,0.00,VWS V14.01,2013-02-16 12:07:00,
2013-02-16 07:12:00,32.9,32.1,29.84,WNW,292,0.0,5.0,97,0.00,,,0.00,VWS V14.01,2013-02-16 12:12:00,
2013-02-16 07:17:00,32.9,32.1,29.84,North,350,1.0,5.0,97,0.00,,,0.00,VWS V14.01,2013-02-16 12:17:00,
2013-02-16 07:22:00,32.8,32.0,29.84,NNW,328,0.0,5.0,97,0.00,,,0.00,VWS V14.01,2013-02-16 12:22:00,
2013-02-16 07:27:00,32.9,32.1,29.85,NNW,344,1.0,5.0,97,0.00,,,0.00,VWS V14.01,2013-02-16 12:27:00,
2013-02-16 07:32:00,32.9,32.1,29.85,North,349,2.0,2.0,97,0.00,,,0.00,VWS V14.01,2013-02-16 12:32:00,
2013-02-16 07:37:00,32.8,32.0,29.85,North,350,1.0,3.0,97,0.00,,,0.00,VWS V14.01,2013-02-16 12:37:00,
2013-02-16 07:42:00,32.6,31.8,29.85,North,355,1.0,5.0,97,0.00,,,0.00,VWS V14.01,2013-02-16 12:42:00,
2013-02-16 07:47:00,32.7,31.9,29.85,North,355,0.0,5.0,97,0.00,,,0.00,VWS V14.01,2013-02-16 12:47:00,
2013-02-16 07:52:00,32.9,32.1,29.85,North,355,0.0,5.0,97,0.00,,,0.00,VWS V14.01,2013-02-16 12:52:00,
2013-02-16 07:57:00,33.0,32.2,29.85,North,360,1.0,5.0,97,0.00,,,0.00,VWS V14.01,2013-02-16 12:57:00,
2013-02-16 08:00:00,35.2,33.7,29.85,North,355,1.0,8.0,94,0.00,,,0.00,VWS V14.01,2013-02-16 13:00:00,
2013-02-16 08:02:00,33.0,32.2,29.84,NNE,19,0.0,0.0,97,0.00,,,0.00,VWS V14.01,2013-02-16 13:02:00,
2013-02-16 08:07:00,33.2,32.4,29.85,WNW,301,4.0,4.0,97,0.00,,,0.00,VWS V14.01,2013-02-16 13:07:00,
2013-02-16 08:12:00,33.4,32.6,29.84,WNW,301,0.0,4.0,97,0.00,,,0.00,VWS V14.01,2013-02-16 13:12:00,
2013-02-16 08:17:00,33.6,32.8,29.84,WNW,301,0.0,4.0,97,0.00,,,0.00,VWS V14.01,2013-02-16 13:17:00,
2013-02-16 08:22:00,33.7,32.9,29.84,North,360,1.0,6.0,97,0.00,,,0.00,VWS V14.01,2013-02-16 13:22:00,
2013-02-16 08:27:00,33.9,33.1,29.84,NNW,340,1.0,6.0,97,0.00,,,0.00,VWS V14.01,2013-02-16 13:27:00,
2013-02-16 08:30:00,37.4,34.7,29.84,NNW,346,0.0,6.0,90,0.00,,,0.00,VWS V14.01,2013-02-16 13:30:00,
2013-02-16 08:32:00,34.2,33.4,29.85,NNW,340,2.0,2.0,97,0.00,,,0.00,VWS V14.01,2013-02-16 13:32:00,
2013-02-16 08:37:00,34.5,33.7,29.85,NNW,340,3.0,4.0,97,0.00,,,0.00,VWS V14.01,2013-02-16 13:37:00,
2013-02-16 08:42:00,34.6,33.6,29.85,NW,323,2.0,8.0,96,0.00,,,0.00,VWS V14.01,2013-02-16 13:42:00,
2013-02-16 08:47:00,34.8,33.8,29.86,NW,326,3.0,8.0,96,0.00,,,0.00,VWS V14.01,2013-02-16 13:47:00,
2013-02-16 08:52:00,35.0,34.0,29.85,NNW,329,1.0,8.0,96,0.00,,,0.00,VWS V14.01,2013-02-16 13:52:00,
2013-02-16 08:57:00,35.2,33.9,29.85,NNE,13,2.0,8.0,95,0.00,,,0.00,VWS V14.01,2013-02-16 13:57:00,
2013-02-16 09:02:00,35.2,33.7,29.85,North,355,3.0,4.0,94,0.00,,,0.00,VWS V14.01,2013-02-16 14:02:00,
2013-02-16 09:07:00,35.2,33.7,29.85,WNW,294,6.0,6.0,94,0.00,,,0.00,VWS V14.01,2013-02-16 14:07:00,
2013-02-16 09:12:00,35.6,34.0,29.84,NNE,24,1.0,6.0,94,0.00,,,0.00,VWS V14.01,2013-02-16 14:12:00,
2013-02-16 09:17:00,36.1,34.3,29.84,North,5,1.0,6.0,93,0.00,,,0.00,VWS V14.01,2013-02-16 14:17:00,
2013-02-16 09:22:00,36.5,34.4,29.84,WNW,300,1.0,6.0,92,0.00,,,0.00,VWS V14.01,2013-02-16 14:22:00,
2013-02-16 09:27:00,37.1,35.0,29.84,North,10,2.0,6.0,92,0.00,,,0.00,VWS V14.01,2013-02-16 14:27:00,
2013-02-16 09:32:00,37.4,34.7,29.84,NNW,346,1.0,2.0,90,0.00,,,0.00,VWS V14.01,2013-02-16 14:32:00,
2013-02-16 09:37:00,37.8,34.9,29.84,NE,35,4.0,11.0,89,0.00,,,0.00,VWS V14.01,2013-02-16 14:37:00,
2013-02-16 09:42:00,37.8,34.0,29.83,NNW,344,2.0,11.0,86,0.00,,,0.00,VWS V14.01,2013-02-16 14:42:00,
2013-02-16 09:47:00,37.9,34.1,29.83,North,9,2.0,11.0,86,0.00,,,0.00,VWS V14.01,2013-02-16 14:47:00,
2013-02-16 09:52:00,37.9,33.5,29.83,NNE,13,3.0,11.0,84,0.00,,,0.00,VWS V14.01,2013-02-16 14:52:00,
2013-02-16 09:57:00,38.2,33.8,29.82,NNE,24,4.0,11.0,84,0.00,,,0.00,VWS V14.01,2013-02-16 14:57:00,
2013-02-16 10:00:00,37.4,32.4,29.82,North,360,2.0,9.0,82,0.00,,,0.00,VWS V14.01,2013-02-16 15:00:00,
2013-02-16 10:02:00,38.5,33.5,29.82,WNW,295,0.0,0.0,82,0.00,,,0.00,VWS V14.01,2013-02-16 15:02:00,
2013-02-16 10:07:00,38.9,33.9,29.82,North,5,3.0,6.0,82,0.00,,,0.00,VWS V14.01,2013-02-16 15:07:00,
2013-02-16 10:12:00,38.6,33.0,29.83,NNE,21,5.0,9.0,80,0.00,,,0.00,VWS V14.01,2013-02-16 15:12:00,
2013-02-16 10:17:00,38.2,32.6,29.82,NE,40,2.0,10.0,80,0.00,,,0.00,VWS V14.01,2013-02-16 15:17:00,
2013-02-16 10:22:00,38.0,32.4,29.82,NNW,340,3.0,10.0,80,0.00,,,0.00,VWS V14.01,2013-02-16 15:22:00,
2013-02-16 10:27:00,38.2,32.6,29.83,NNE,27,2.0,10.0,80,0.00,,,0.00,VWS V14.01,2013-02-16 15:27:00,
2013-02-16 10:30:00,36.5,32.1,29.81,NNW,342,2.0,11.0,84,0.00,,,0.00,VWS V14.01,2013-02-16 15:30:00,
2013-02-16 10:32:00,38.2,32.6,29.83,NNE,33,4.0,7.0,80,0.00,,,0.00,VWS V14.01,2013-02-16 15:32:00,
2013-02-16 10:37:00,37.9,32.3,29.83,NNE,20,4.0,7.0,80,0.00,,,0.00,VWS V14.01,2013-02-16 15:37:00,
2013-02-16 10:42:00,37.7,32.1,29.82,NNE,31,3.0,9.0,80,0.00,,,0.00,VWS V14.01,2013-02-16 15:42:00,
2013-02-16 10:47:00,37.4,32.1,29.82,North,10,1.0,9.0,81,0.00,,,0.00,VWS V14.01,2013-02-16 15:47:00,
2013-02-16 10:52:00,37.4,32.4,29.82,NE,50,3.0,9.0,82,0.00,,,0.00,VWS V14.01,2013-02-16 15:52:00,
2013-02-16 10:57:00,37.4,32.4,29.82,NE,38,2.0,9.0,82,0.00,,,0.00,VWS V14.01,2013-02-16 15:57:00,
2013-02-16 11:00:00,35.9,32.1,29.80,North,350,4.0,10.0,86,0.00,,,0.00,VWS V14.01,2013-02-16 16:00:00,
2013-02-16 11:02:00,37.4,32.4,29.81,North,5,2.0,3.0,82,0.00,,,0.00,VWS V14.01,2013-02-16 16:02:00,
2013-02-16 11:07:00,37.3,32.6,29.81,NNW,341,0.0,6.0,83,0.00,,,0.00,VWS V14.01,2013-02-16 16:07:00,
2013-02-16 11:12:00,37.1,32.4,29.81,NW,317,2.0,8.0,83,0.00,,,0.00,VWS V14.01,2013-02-16 16:12:00,
2013-02-16 11:17:00,37.0,32.3,29.81,NW,325,2.0,9.0,83,0.00,,,0.00,VWS V14.01,2013-02-16 16:17:00,
2013-02-16 11:22:00,36.8,32.1,29.81,North,5,3.0,11.0,83,0.00,,,0.00,VWS V14.01,2013-02-16 16:22:00,
2013-02-16 11:27:00,36.6,32.2,29.81,NW,325,4.0,11.0,84,0.00,,,0.00,VWS V14.01,2013-02-16 16:27:00,
2013-02-16 11:30:00,35.4,32.5,29.79,NE,35,3.0,8.0,89,0.00,,,0.00,VWS V14.01,2013-02-16 16:30:00,
2013-02-16 11:32:00,36.5,32.4,29.81,NNW,342,2.0,2.0,85,0.00,,,0.00,VWS V14.01,2013-02-16 16:32:00,
2013-02-16 11:37:00,36.4,32.3,29.81,North,360,2.0,7.0,85,0.00,,,0.00,VWS V14.01,2013-02-16 16:37:00,
2013-02-16 11:42:00,36.2,32.1,29.81,North,360,5.0,9.0,85,0.00,,,0.00,VWS V14.01,2013-02-16 16:42:00,
2013-02-16 11:47:00,36.1,32.0,29.81,NW,326,7.0,9.0,85,0.00,,,0.00,VWS V14.01,2013-02-16 16:47:00,
2013-02-16 11:52:00,36.1,32.0,29.80,North,5,1.0,9.0,85,0.00,,,0.00,VWS V14.01,2013-02-16 16:52:00,
2013-02-16 11:57:00,36.0,31.9,29.80,NNW,331,4.0,10.0,85,0.00,,,0.00,VWS V14.01,2013-02-16 16:57:00,
2013-02-16 12:00:00,34.9,32.5,29.78,ENE,61,3.0,10.0,91,0.00,,,0.00,VWS V14.01,2013-02-16 17:00:00,
2013-02-16 12:02:00,35.9,32.1,29.80,NNW,336,1.0,4.0,86,0.00,,,0.00,VWS V14.01,2013-02-16 17:02:00,
2013-02-16 12:07:00,35.9,32.1,29.80,NNW,336,4.0,8.0,86,0.00,,,0.00,VWS V14.01,2013-02-16 17:07:00,
2013-02-16 12:12:00,35.7,32.2,29.80,North,5,3.0,8.0,87,0.00,,,0.00,VWS V14.01,2013-02-16 17:12:00,
2013-02-16 12:17:00,35.6,32.1,29.80,North,355,2.0,8.0,87,0.00,,,0.00,VWS V14.01,2013-02-16 17:17:00,
2013-02-16 12:22:00,35.6,32.4,29.79,NNE,16,1.0,8.0,88,0.00,,,0.00,VWS V14.01,2013-02-16 17:22:00,
2013-02-16 12:27:00,35.5,32.3,29.79,North,9,5.0,8.0,88,0.00,,,0.00,VWS V14.01,2013-02-16 17:27:00,
2013-02-16 12:30:00,34.6,32.5,29.77,WNW,298,4.0,8.0,92,0.00,,,0.00,VWS V14.01,2013-02-16 17:30:00,
2013-02-16 12:32:00,35.4,32.5,29.79,NE,35,0.0,3.0,89,0.00,,,0.00,VWS V14.01,2013-02-16 17:32:00,
2013-02-16 12:37:00,35.2,32.3,29.78,North,5,3.0,10.0,89,0.00,,,0.00,VWS V14.01,2013-02-16 17:37:00,
2013-02-16 12:42:00,35.2,32.6,29.78,NNE,25,1.0,10.0,90,0.00,,,0.00,VWS V14.01,2013-02-16 17:42:00,
2013-02-16 12:47:00,35.1,32.5,29.78,NNE,22,2.0,10.0,90,0.00,,,0.00,VWS V14.01,2013-02-16 17:47:00,
2013-02-16 12:52:00,35.0,32.4,29.78,NNW,327,5.0,10.0,90,0.00,,,0.00,VWS V14.01,2013-02-16 17:52:00,
2013-02-16 12:57:00,34.9,32.5,29.78,NE,44,5.0,10.0,91,0.00,,,0.00,VWS V14.01,2013-02-16 17:57:00,
2013-02-16 13:02:00,34.9,32.5,29.78,NNE,27,2.0,4.0,91,0.00,,,0.00,VWS V14.01,2013-02-16 18:02:00,
2013-02-16 13:07:00,34.8,32.5,29.78,North,5,2.0,4.0,91,0.00,,,0.00,VWS V14.01,2013-02-16 18:07:00,
2013-02-16 13:12:00,34.8,32.5,29.78,NW,311,4.0,7.0,91,0.00,,,0.00,VWS V14.01,2013-02-16 18:12:00,
2013-02-16 13:17:00,34.7,32.3,29.77,North,350,3.0,8.0,91,0.00,,,0.00,VWS V14.01,2013-02-16 18:17:00,
2013-02-16 13:22:00,34.6,32.5,29.78,NNW,331,3.0,8.0,92,0.00,,,0.00,VWS V14.01,2013-02-16 18:22:00,
2013-02-16 13:27:00,34.6,32.5,29.77,NNW,348,3.0,8.0,92,0.00,,,0.00,VWS V14.01,2013-02-16 18:27:00,
2013-02-16 13:32:00,34.6,32.5,29.77,North,360,7.0,7.0,92,0.00,,,0.00,VWS V14.01,2013-02-16 18:32:00,
2013-02-16 13:37:00,34.6,32.8,29.76,NE,35,2.0,7.0,93,0.00,,,0.00,VWS V14.01,2013-02-16 18:37:00,
2013-02-16 13:42:00,34.5,32.7,29.76,North,5,2.0,7.0,93,0.01,,,0.01,VWS V14.01,2013-02-16 18:42:00,
2013-02-16 13:47:00,34.5,32.7,29.76,North,5,1.0,7.0,93,0.01,,,0.01,VWS V14.01,2013-02-16 18:47:00,
2013-02-16 13:52:00,34.5,32.7,29.76,NW,318,2.0,7.0,93,0.01,,,0.01,VWS V14.01,2013-02-16 18:52:00,
2013-02-16 13:57:00,34.5,32.7,29.76,NNW,348,0.0,7.0,93,0.01,,,0.01,VWS V14.01,2013-02-16 18:57:00,
2013-02-16 14:02:00,34.4,32.9,29.76,North,355,0.0,1.0,94,0.01,,,0.01,VWS V14.01,2013-02-16 19:02:00,
2013-02-16 14:07:00,34.3,32.8,29.76,WNW,297,3.0,7.0,94,0.01,,,0.01,VWS V14.01,2013-02-16 19:07:00,
2013-02-16 14:12:00,34.3,32.8,29.76,NW,325,2.0,7.0,94,0.01,,,0.01,VWS V14.01,2013-02-16 19:12:00,
2013-02-16 14:17:00,34.2,32.7,29.76,North,5,2.0,7.0,94,0.01,,,0.01,VWS V14.01,2013-02-16 19:17:00,
2013-02-16 14:22:00,34.3,32.8,29.75,NNE,30,4.0,7.0,94,0.01,,,0.01,VWS V14.01,2013-02-16 19:22:00,
2013-02-16 14:27:00,34.1,32.6,29.75,NNE,14,1.0,7.0,94,0.02,,,0.02,VWS V14.01,2013-02-16 19:27:00,
2013-02-16 14:30:00,33.3,32.0,29.74,NW,304,4.0,7.0,95,0.02,,,0.03,VWS V14.01,2013-02-16 19:30:00,
2013-02-16 14:32:00,34.1,32.6,29.75,NNW,340,2.0,3.0,94,0.02,,,0.02,VWS V14.01,2013-02-16 19:32:00,
2013-02-16 14:37:00,34.1,32.6,29.75,NW,313,1.0,5.0,94,0.02,,,0.02,VWS V14.01,2013-02-16 19:37:00,
2013-02-16 14:42:00,34.0,32.5,29.75,NNE,21,0.0,5.0,94,0.02,,,0.02,VWS V14.01,2013-02-16 19:42:00,
2013-02-16 14:47:00,34.0,32.5,29.75,North,355,4.0,5.0,94,0.02,,,0.02,VWS V14.01,2013-02-16 19:47:00,
2013-02-16 14:52:00,33.9,32.4,29.75,North,11,0.0,5.0,94,0.02,,,0.02,VWS V14.01,2013-02-16 19:52:00,
2013-02-16 14:57:00,33.8,32.5,29.75,North,355,2.0,7.0,95,0.02,,,0.02,VWS V14.01,2013-02-16 19:57:00,
2013-02-16 15:00:00,33.0,31.7,29.74,NW,304,0.0,5.0,95,0.01,,,0.03,VWS V14.01,2013-02-16 20:00:00,
2013-02-16 15:02:00,33.8,32.5,29.75,NNW,335,3.0,4.0,95,0.01,,,0.02,VWS V14.01,2013-02-16 20:02:00,
2013-02-16 15:07:00,33.7,32.4,29.75,NNW,342,2.0,5.0,95,0.01,,,0.02,VWS V14.01,2013-02-16 20:07:00,
2013-02-16 15:12:00,33.7,32.4,29.75,NNW,340,1.0,5.0,95,0.01,,,0.02,VWS V14.01,2013-02-16 20:12:00,
2013-02-16 15:17:00,33.7,32.4,29.74,North,5,1.0,5.0,95,0.02,,,0.03,VWS V14.01,2013-02-16 20:17:00,
2013-02-16 15:22:00,33.6,32.3,29.74,NNW,348,1.0,5.0,95,0.02,,,0.03,VWS V14.01,2013-02-16 20:22:00,
2013-02-16 15:27:00,33.4,32.1,29.74,NNW,328,1.0,6.0,95,0.02,,,0.03,VWS V14.01,2013-02-16 20:27:00,
2013-02-16 15:32:00,33.3,32.0,29.74,West,264,2.0,4.0,95,0.01,,,0.03,VWS V14.01,2013-02-16 20:32:00,
2013-02-16 15:37:00,33.3,32.0,29.74,NNW,342,1.0,5.0,95,0.01,,,0.03,VWS V14.01,2013-02-16 20:37:00,
2013-02-16 15:42:00,33.2,31.9,29.74,NNW,338,0.0,5.0,95,0.01,,,0.03,VWS V14.01,2013-02-16 20:42:00,
2013-02-16 15:47:00,33.2,31.9,29.74,NNW,346,1.0,5.0,95,0.01,,,0.03,VWS V14.01,2013-02-16 20:47:00,
2013-02-16 15:52:00,33.1,31.8,29.74,NNW,328,5.0,5.0,95,0.01,,,0.03,VWS V14.01,2013-02-16 20:52:00,
2013-02-16 15:57:00,33.0,31.7,29.74,NNW,342,1.0,5.0,95,0.01,,,0.03,VWS V14.01,2013-02-16 20:57:00,
2013-02-16 16:00:00,32.5,31.5,29.73,NNW,340,3.0,8.0,96,0.00,,,0.03,VWS V14.01,2013-02-16 21:00:00,
2013-02-16 16:02:00,33.0,31.7,29.74,North,5,3.0,3.0,95,0.01,,,0.03,VWS V14.01,2013-02-16 21:02:00,
2013-02-16 16:07:00,32.9,31.6,29.74,NW,321,1.0,4.0,95,0.01,,,0.03,VWS V14.01,2013-02-16 21:07:00,
2013-02-16 16:12:00,32.8,31.5,29.73,North,355,0.0,4.0,95,0.01,,,0.03,VWS V14.01,2013-02-16 21:12:00,
2013-02-16 16:17:00,32.8,31.5,29.73,NW,316,2.0,6.0,95,0.01,,,0.03,VWS V14.01,2013-02-16 21:17:00,
2013-02-16 16:22:00,32.8,31.8,29.73,NW,316,1.0,6.0,96,0.01,,,0.03,VWS V14.01,2013-02-16 21:22:00,
2013-02-16 16:27:00,32.7,31.7,29.73,NNW,335,2.0,6.0,96,0.01,,,0.03,VWS V14.01,2013-02-16 21:27:00,
2013-02-16 16:32:00,32.7,31.7,29.73,NW,325,1.0,3.0,96,0.00,,,0.03,VWS V14.01,2013-02-16 21:32:00,
2013-02-16 16:37:00,32.7,31.7,29.73,NE,37,0.0,5.0,96,0.00,,,0.03,VWS V14.01,2013-02-16 21:37:00,
2013-02-16 16:42:00,32.6,31.6,29.73,North,10,2.0,5.0,96,0.00,,,0.03,VWS V14.01,2013-02-16 21:42:00,
2013-02-16 16:47:00,32.6,31.6,29.73,NNW,331,1.0,5.0,96,0.00,,,0.03,VWS V14.01,2013-02-16 21:47:00,
2013-02-16 16:52:00,32.6,31.6,29.73,North,9,7.0,8.0,96,0.00,,,0.03,VWS V14.01,2013-02-16 21:52:00,
2013-02-16 16:57:00,32.5,31.5,29.73,North,349,1.0,8.0,96,0.00,,,0.03,VWS V14.01,2013-02-16 21:57:00,
2013-02-16 17:02:00,32.5,31.5,29.73,NNW,342,4.0,4.0,96,0.00,,,0.03,VWS V14.01,2013-02-16 22:02:00,
2013-02-16 17:07:00,32.5,31.5,29.73,North,9,3.0,4.0,96,0.00,,,0.03,VWS V14.01,2013-02-16 22:07:00,
2013-02-16 17:12:00,32.5,31.5,29.73,North,355,3.0,5.0,96,0.00,,,0.03,VWS V14.01,2013-02-16 22:12:00,
2013-02-16 17:17:00,32.5,31.5,29.73,North,5,1.0,5.0,96,0.00,,,0.03,VWS V14.01,2013-02-16 22:17:00,
2013-02-16 17:22:00,32.5,31.5,29.73,NNW,346,1.0,5.0,96,0.00,,,0.03,VWS V14.01,2013-02-16 22:22:00,
2013-02-16 17:27:00,32.6,31.6,29.73,NW,325,0.0,5.0,96,0.00,,,0.03,VWS V14.01,2013-02-16 22:27:00,
2013-02-16 17:30:00,32.7,31.7,29.73,NW,309,2.0,7.0,96,0.00,,,0.03,VWS V14.01,2013-02-16 22:30:00,
2013-02-16 17:32:00,32.6,31.6,29.73,NNW,343,2.0,4.0,96,0.00,,,0.03,VWS V14.01,2013-02-16 22:32:00,
2013-02-16 17:37:00,32.6,31.6,29.73,NNE,30,2.0,4.0,96,0.00,,,0.03,VWS V14.01,2013-02-16 22:37:00,
2013-02-16 17:42:00,32.6,31.6,29.73,NNW,348,0.0,4.0,96,0.00,,,0.03,VWS V14.01,2013-02-16 22:42:00,
2013-02-16 17:47:00,32.6,31.6,29.72,NNW,339,4.0,5.0,96,0.00,,,0.03,VWS V14.01,2013-02-16 22:47:00,
2013-02-16 17:52:00,32.6,31.6,29.72,North,360,1.0,5.0,96,0.00,,,0.03,VWS V14.01,2013-02-16 22:52:00,
2013-02-16 17:57:00,32.6,31.6,29.72,North,5,2.0,5.0,96,0.00,,,0.03,VWS V14.01,2013-02-16 22:57:00,
2013-02-16 18:02:00,32.6,31.6,29.73,NNE,33,1.0,1.0,96,0.00,,,0.03,VWS V14.01,2013-02-16 23:02:00,
2013-02-16 18:07:00,32.6,31.6,29.73,North,9,1.0,5.0,96,0.00,,,0.03,VWS V14.01,2013-02-16 23:07:00,
2013-02-16 18:12:00,32.6,31.6,29.72,NNE,22,1.0,5.0,96,0.00,,,0.03,VWS V14.01,2013-02-16 23:12:00,
2013-02-16 18:17:00,32.6,31.6,29.73,NNW,334,2.0,7.0,96,0.00,,,0.03,VWS V14.01,2013-02-16 23:17:00,
2013-02-16 18:22:00,32.6,31.6,29.73,North,355,2.0,7.0,96,0.00,,,0.03,VWS V14.01,2013-02-16 23:22:00,
2013-02-16 18:27:00,32.6,31.6,29.73,North,355,2.0,7.0,96,0.00,,,0.03,VWS V14.01,2013-02-16 23:27:00,
2013-02-16 18:30:00,32.6,31.6,29.71,WNW,298,2.0,6.0,96,0.00,,,0.03,VWS V14.01,2013-02-16 23:30:00,
2013-02-16 18:32:00,32.7,31.7,29.73,NW,309,2.0,2.0,96,0.00,,,0.03,VWS V14.01,2013-02-16 23:32:00,
2013-02-16 18:37:00,32.7,31.7,29.73,North,355,1.0,5.0,96,0.00,,,0.03,VWS V14.01,2013-02-16 23:37:00,
2013-02-16 18:42:00,32.7,31.7,29.72,North,355,0.0,5.0,96,0.00,,,0.03,VWS V14.01,2013-02-16 23:42:00,
2013-02-16 18:47:00,32.7,31.7,29.72,North,360,0.0,5.0,96,0.00,,,0.03,VWS V14.01,2013-02-16 23:47:00,
2013-02-16 18:52:00,32.6,31.6,29.72,North,5,1.0,5.0,96,0.00,,,0.03,VWS V14.01,2013-02-16 23:52:00,
2013-02-16 18:57:00,32.6,31.6,29.72,North,355,3.0,5.0,96,0.00,,,0.03,VWS V14.01,2013-02-16 23:57:00,
2013-02-16 19:00:00,32.5,31.5,29.70,North,360,2.0,5.0,96,0.00,,,0.03,VWS V14.01,2013-02-17 00:00:00,
2013-02-16 19:02:00,32.6,31.6,29.72,North,5,3.0,6.0,96,0.00,,,0.03,VWS V14.01,2013-02-17 00:02:00,
2013-02-16 19:07:00,32.6,31.6,29.71,NNE,22,0.0,3.0,96,0.00,,,0.03,VWS V14.01,2013-02-17 00:07:00,
2013-02-16 19:12:00,32.6,31.6,29.71,NNW,331,3.0,6.0,96,0.00,,,0.03,VWS V14.01,2013-02-17 00:12:00,
2013-02-16 19:17:00,32.6,31.6,29.71,West,271,2.0,6.0,96,0.00,,,0.03,VWS V14.01,2013-02-17 00:17:00,
2013-02-16 19:22:00,32.6,31.6,29.71,NNW,346,0.0,6.0,96,0.00,,,0.03,VWS V14.01,2013-02-17 00:22:00,
2013-02-16 19:27:00,32.6,31.6,29.71,NW,308,1.0,6.0,96,0.00,,,0.03,VWS V14.01,2013-02-17 00:27:00,
2013-02-16 19:30:00,32.4,31.4,29.68,NW,304,5.0,8.0,96,0.00,,,0.03,VWS V14.01,2013-02-17 00:30:00,
2013-02-16 19:32:00,32.6,31.6,29.71,WNW,298,1.0,2.0,96,0.00,,,0.03,VWS V14.01,2013-02-17 00:32:00,
2013-02-16 19:37:00,32.6,31.6,29.71,NW,309,1.0,4.0,96,0.00,,,0.03,VWS V14.01,2013-02-17 00:37:00,
2013-02-16 19:42:00,32.5,31.5,29.71,NW,309,2.0,4.0,96,0.00,,,0.03,VWS V14.01,2013-02-17 00:42:00,
2013-02-16 19:47:00,32.5,31.5,29.70,WNW,296,1.0,4.0,96,0.00,,,0.03,VWS V14.01,2013-02-17 00:47:00,
2013-02-16 19:52:00,32.5,31.5,29.70,North,355,2.0,5.0,96,0.00,,,0.03,VWS V14.01,2013-02-17 00:52:00,
2013-02-16 19:57:00,32.5,31.5,29.70,North,355,1.0,5.0,96,0.00,,,0.03,VWS V14.01,2013-02-17 00:57:00,
2013-02-16 20:02:00,32.5,31.5,29.70,North,360,2.0,5.0,96,0.00,,,0.03,VWS V14.01,2013-02-17 01:02:00,
2013-02-16 20:07:00,32.5,31.7,29.69,NNW,336,2.0,4.0,97,0.00,,,0.03,VWS V14.01,2013-02-17 01:07:00,
2013-02-16 20:12:00,32.5,31.5,29.69,NNW,327,5.0,7.0,96,0.00,,,0.03,VWS V14.01,2013-02-17 01:12:00,
2013-02-16 20:17:00,32.5,31.5,29.69,NNW,340,3.0,8.0,96,0.00,,,0.03,VWS V14.01,2013-02-17 01:17:00,
2013-02-16 20:22:00,32.4,31.4,29.68,NNE,30,3.0,8.0,96,0.00,,,0.03,VWS V14.01,2013-02-17 01:22:00,
2013-02-16 20:27:00,32.4,31.4,29.68,NNW,329,2.0,8.0,96,0.00,,,0.03,VWS V14.01,2013-02-17 01:27:00,
2013-02-16 20:30:00,33.1,32.1,29.66,North,360,6.0,8.0,96,0.00,,,0.03,VWS V14.01,2013-02-17 01:30:00,
2013-02-16 20:32:00,32.4,31.4,29.67,NW,315,4.0,5.0,96,0.00,,,0.03,VWS V14.01,2013-02-17 01:32:00,
2013-02-16 20:37:00,32.3,31.3,29.68,NNW,330,1.0,7.0,96,0.00,,,0.03,VWS V14.01,2013-02-17 01:37:00,
2013-02-16 20:42:00,32.4,31.4,29.67,NNW,329,1.0,8.0,96,0.00,,,0.03,VWS V14.01,2013-02-17 01:42:00,
2013-02-16 20:47:00,32.5,31.5,29.68,NNW,348,7.0,8.0,96,0.00,,,0.03,VWS V14.01,2013-02-17 01:47:00,
2013-02-16 20:52:00,32.5,31.7,29.68,NNE,16,4.0,8.0,97,0.00,,,0.03,VWS V14.01,2013-02-17 01:52:00,
2013-02-16 20:57:00,32.6,31.8,29.67,NNW,344,4.0,9.0,97,0.00,,,0.03,VWS V14.01,2013-02-17 01:57:00,
2013-02-16 21:00:00,33.0,32.0,29.65,NNE,17,4.0,8.0,96,0.01,,,0.04,VWS V14.01,2013-02-17 02:00:00,
2013-02-16 21:02:00,32.7,31.7,29.67,NNE,19,3.0,9.0,96,0.00,,,0.03,VWS V14.01,2013-02-17 02:02:00,
2013-02-16 21:07:00,32.8,31.8,29.67,NNE,13,0.0,6.0,96,0.00,,,0.03,VWS V14.01,2013-02-17 02:07:00,
2013-02-16 21:12:00,32.8,31.8,29.67,NE,50,1.0,6.0,96,0.00,,,0.03,VWS V14.01,2013-02-17 02:12:00,
2013-02-16 21:17:00,32.9,31.9,29.67,NNE,21,6.0,6.0,96,0.00,,,0.03,VWS V14.01,2013-02-17 02:17:00,
2013-02-16 21:22:00,32.9,31.9,29.67,NNE,23,4.0,6.0,96,0.00,,,0.03,VWS V14.01,2013-02-17 02:22:00,
2013-02-16 21:27:00,33.0,32.0,29.66,NNW,336,4.0,6.0,96,0.00,,,0.03,VWS V14.01,2013-02-17 02:27:00,
2013-02-16 21:32:00,33.1,32.1,29.66,North,360,6.0,8.0,96,0.00,,,0.03,VWS V14.01,2013-02-17 02:32:00,
2013-02-16 21:37:00,33.2,32.2,29.66,NNE,12,3.0,7.0,96,0.00,,,0.03,VWS V14.01,2013-02-17 02:37:00,
2013-02-16 21:42:00,33.2,32.2,29.66,NE,36,3.0,7.0,96,0.01,,,0.04,VWS V14.01,2013-02-17 02:42:00,
2013-02-16 21:47:00,33.1,32.1,29.66,NNE,20,2.0,8.0,96,0.01,,,0.04,VWS V14.01,2013-02-17 02:47:00,
2013-02-16 21:52:00,33.0,32.0,29.65,NNE,22,3.0,8.0,96,0.01,,,0.04,VWS V14.01,2013-02-17 02:52:00,
2013-02-16 21:57:00,33.0,32.0,29.65,NW,305,4.0,8.0,96,0.01,,,0.04,VWS V14.01,2013-02-17 02:57:00,
2013-02-16 22:00:00,33.4,32.4,29.60,NNE,23,4.0,12.0,96,0.01,,,0.04,VWS V14.01,2013-02-17 03:00:00,
2013-02-16 22:02:00,33.0,32.0,29.65,NNE,17,4.0,8.0,96,0.01,,,0.04,VWS V14.01,2013-02-17 03:02:00,
2013-02-16 22:07:00,33.0,32.0,29.65,North,355,3.0,7.0,96,0.01,,,0.04,VWS V14.01,2013-02-17 03:07:00,
2013-02-16 22:12:00,33.1,32.1,29.65,NNW,344,4.0,7.0,96,0.01,,,0.04,VWS V14.01,2013-02-17 03:12:00,
2013-02-16 22:17:00,33.2,32.2,29.64,NW,326,3.0,7.0,96,0.01,,,0.04,VWS V14.01,2013-02-17 03:17:00,
2013-02-16 22:22:00,33.2,32.2,29.64,NNE,20,3.0,7.0,96,0.01,,,0.04,VWS V14.01,2013-02-17 03:22:00,
2013-02-16 22:27:00,33.3,32.3,29.64,NNW,348,3.0,7.0,96,0.01,,,0.04,VWS V14.01,2013-02-17 03:27:00,
2013-02-16 22:30:00,33.2,32.2,29.58,North,11,3.0,17.0,96,0.00,,,0.04,VWS V14.01,2013-02-17 03:30:00,
2013-02-16 22:32:00,33.4,32.4,29.64,North,5,2.0,2.0,96,0.01,,,0.04,VWS V14.01,2013-02-17 03:32:00,
2013-02-16 22:37:00,33.5,32.5,29.63,NW,325,3.0,7.0,96,0.01,,,0.04,VWS V14.01,2013-02-17 03:37:00,
2013-02-16 22:42:00,33.4,32.4,29.61,NNE,14,1.0,7.0,96,0.01,,,0.04,VWS V14.01,2013-02-17 03:42:00,
2013-02-16 22:47:00,33.3,32.3,29.61,NNW,332,5.0,8.0,96,0.01,,,0.04,VWS V14.01,2013-02-17 03:47:00,
2013-02-16 22:52:00,33.2,32.2,29.60,NNE,16,4.0,11.0,96,0.01,,,0.04,VWS V14.01,2013-02-17 03:52:00,
2013-02-16 22:57:00,33.3,32.3,29.60,NNW,348,2.0,12.0,96,0.01,,,0.04,VWS V14.01,2013-02-17 03:57:00,
2013-02-16 23:00:00,33.1,32.1,29.56,NNW,346,5.0,12.0,96,0.01,,,0.05,VWS V14.01,2013-02-17 04:00:00,
2013-02-16 23:02:00,33.4,32.4,29.60,NNW,348,9.0,12.0,96,0.01,,,0.04,VWS V14.01,2013-02-17 04:02:00,
2013-02-16 23:07:00,33.3,32.3,29.59,NNW,342,4.0,9.0,96,0.00,,,0.04,VWS V14.01,2013-02-17 04:07:00,
2013-02-16 23:12:00,33.2,32.2,29.59,NNE,24,3.0,9.0,96,0.00,,,0.04,VWS V14.01,2013-02-17 04:12:00,
2013-02-16 23:17:00,33.3,32.3,29.59,NNW,333,2.0,9.0,96,0.00,,,0.04,VWS V14.01,2013-02-17 04:17:00,
2013-02-16 23:22:00,33.3,32.3,29.58,North,11,3.0,9.0,96,0.00,,,0.04,VWS V14.01,2013-02-17 04:22:00,
2013-02-16 23:27:00,33.2,32.2,29.58,NNE,23,4.0,17.0,96,0.00,,,0.04,VWS V14.01,2013-02-17 04:27:00,
2013-02-16 23:32:00,33.2,32.2,29.58,North,11,3.0,17.0,96,0.00,,,0.04,VWS V14.01,2013-02-17 04:32:00,
2013-02-16 23:37:00,33.3,32.3,29.58,NW,321,4.0,11.0,96,0.00,,,0.04,VWS V14.01,2013-02-17 04:37:00,
2013-02-16 23:42:00,33.2,32.2,29.58,North,355,2.0,11.0,96,0.01,,,0.05,VWS V14.01,2013-02-17 04:42:00,
2013-02-16 23:47:00,33.2,32.2,29.58,NNE,16,4.0,11.0,96,0.01,,,0.05,VWS V14.01,2013-02-17 04:47:00,
2013-02-16 23:52:00,33.1,32.1,29.57,NNE,26,4.0,11.0,96,0.01,,,0.05,VWS V14.01,2013-02-17 04:52:00,
2013-02-16 23:57:00,33.1,32.1,29.57,NE,51,2.0,11.0,96,0.01,,,0.05,VWS V14.01,2013-02-17 04:57:00,